Terminal Aerodrome Forecast
Issued by NWS Buffalo, NY

Home | Current Version | Previous Version | Text Only | Print | Product List | Glossary On
Versions: 1 2 3 4 5 6 7 8 9 10 11 12 13 14 15 16 17 18 19 20 21 22 23 24
000
FTUS41 KBUF 020500
TAFROC
TAF
KROC 020520Z 0206/0306 26006KT 5SM -SHSN SCT025 BKN035
     FM021000 26010KT P6SM VCSH OVC020
     FM021600 28018G28KT P6SM FEW020 BKN150
     FM030000 28009KT P6SM SCT200=

USA.gov is the U.S. government's official web portal to all federal, state and local government web resources and services.